sensor_id;sensor_type;location;lat;lon;timestamp;temperature;humidity
63771;DHT22;60282;43.862;18.430;2023-11-18T00:01:19;4.30;99.90
63771;DHT22;60282;43.862;18.430;2023-11-18T00:03:56;4.30;99.90
63771;DHT22;60282;43.862;18.430;2023-11-18T00:06:23;4.20;99.90
63771;DHT22;60282;43.862;18.430;2023-11-18T00:11:30;4.10;99.90
63771;DHT22;60282;43.862;18.430;2023-11-18T00:13:56;3.70;99.90
63771;DHT22;60282;43.862;18.430;2023-11-18T00:16:33;4.10;99.90
63771;DHT22;60282;43.862;18.430;2023-11-18T00:19:02;3.70;99.90
63771;DHT22;60282;43.862;18.430;2023-11-18T00:21:54;4.10;99.90
63771;DHT22;60282;43.862;18.430;2023-11-18T00:27:07;4.10;99.90
63771;DHT22;60282;43.862;18.430;2023-11-18T00:29:36;4.00;99.90
63771;DHT22;60282;43.862;18.430;2023-11-18T00:35:24;4.10;99.90
63771;DHT22;60282;43.862;18.430;2023-11-18T00:37:50;4.10;99.90
63771;DHT22;60282;43.862;18.430;2023-11-18T00:40:16;4.20;99.90
63771;DHT22;60282;43.862;18.430;2023-11-18T00:42:47;4.20;99.90
63771;DHT22;60282;43.862;18.430;2023-11-18T00:45:22;4.20;99.90
63771;DHT22;60282;43.862;18.430;2023-11-18T00:48:07;4.20;99.90
63771;DHT22;60282;43.862;18.430;2023-11-18T00:55:32;4.20;99.90
63771;DHT22;60282;43.862;18.430;2023-11-18T01:03:23;4.10;99.90
63771;DHT22;60282;43.862;18.430;2023-11-18T01:08:21;4.20;99.90
63771;DHT22;60282;43.862;18.430;2023-11-18T01:10:47;4.20;99.90
63771;DHT22;60282;43.862;18.430;2023-11-18T01:13:16;4.30;99.90
63771;DHT22;60282;43.862;18.430;2023-11-18T01:15:43;4.40;99.90
63771;DHT22;60282;43.862;18.430;2023-11-18T01:18:22;4.40;99.90
63771;DHT22;60282;43.862;18.430;2023-11-18T01:20:49;4.40;99.90
63771;DHT22;60282;43.862;18.430;2023-11-18T01:23:23;3.50;99.90
63771;DHT22;60282;43.862;18.430;2023-11-18T01:25:50;4.40;99.90
63771;DHT22;60282;43.862;18.430;2023-11-18T01:28:18;4.40;99.90
63771;DHT22;60282;43.862;18.430;2023-11-18T01:30:44;4.30;99.90
63771;DHT22;60282;43.862;18.430;2023-11-18T01:33:13;2.70;99.90
63771;DHT22;60282;43.862;18.430;2023-11-18T01:35:52;4.30;99.90
63771;DHT22;60282;43.862;18.430;2023-11-18T01:38:35;4.30;99.90
63771;DHT22;60282;43.862;18.430;2023-11-18T01:41:09;3.70;99.90
63771;DHT22;60282;43.862;18.430;2023-11-18T01:43:36;4.20;99.90
63771;DHT22;60282;43.862;18.430;2023-11-18T01:46:05;4.20;99.90
63771;DHT22;60282;43.862;18.430;2023-11-18T01:48:42;4.20;99.90
63771;DHT22;60282;43.862;18.430;2023-11-18T01:53:47;4.10;99.90
63771;DHT22;60282;43.862;18.430;2023-11-18T01:58:42;4.10;99.90
63771;DHT22;60282;43.862;18.430;2023-11-18T02:01:16;4.20;99.90
63771;DHT22;60282;43.862;18.430;2023-11-18T02:04:09;4.20;99.90
63771;DHT22;60282;43.862;18.430;2023-11-18T02:07:06;4.80;99.90
63771;DHT22;60282;43.862;18.430;2023-11-18T02:09:35;4.10;99.90
63771;DHT22;60282;43.862;18.430;2023-11-18T02:15:03;3.20;99.90
63771;DHT22;60282;43.862;18.430;2023-11-18T02:18:12;4.10;99.90
63771;DHT22;60282;43.862;18.430;2023-11-18T02:20:46;4.90;99.90
63771;DHT22;60282;43.862;18.430;2023-11-18T02:23:16;4.20;99.90
63771;DHT22;60282;43.862;18.430;2023-11-18T02:25:45;4.10;99.90
63771;DHT22;60282;43.862;18.430;2023-11-18T02:28:18;4.10;99.90
63771;DHT22;60282;43.862;18.430;2023-11-18T02:30:46;4.10;99.90
63771;DHT22;60282;43.862;18.430;2023-11-18T02:33:44;4.10;99.90
63771;DHT22;60282;43.862;18.430;2023-11-18T02:36:48;4.10;99.90
63771;DHT22;60282;43.862;18.430;2023-11-18T02:39:53;5.30;99.90
63771;DHT22;60282;43.862;18.430;2023-11-18T02:42:29;4.10;99.90
63771;DHT22;60282;43.862;18.430;2023-11-18T02:44:57;4.20;99.90
63771;DHT22;60282;43.862;18.430;2023-11-18T02:47:30;4.10;99.90
63771;DHT22;60282;43.862;18.430;2023-11-18T02:49:58;4.30;99.90
63771;DHT22;60282;43.862;18.430;2023-11-18T02:52:38;4.20;99.90
63771;DHT22;60282;43.862;18.430;2023-11-18T02:55:13;4.10;99.90
63771;DHT22;60282;43.862;18.430;2023-11-18T02:57:57;4.10;99.90
63771;DHT22;60282;43.862;18.430;2023-11-18T03:00:28;4.00;99.90
63771;DHT22;60282;43.862;18.430;2023-11-18T03:03:00;4.00;99.90
63771;DHT22;60282;43.862;18.430;2023-11-18T03:05:32;4.00;99.90
63771;DHT22;60282;43.862;18.430;2023-11-18T03:08:02;6.20;99.90
63771;DHT22;60282;43.862;18.430;2023-11-18T03:10:39;4.10;99.90
63771;DHT22;60282;43.862;18.430;2023-11-18T03:13:10;4.10;99.90
63771;DHT22;60282;43.862;18.430;2023-11-18T03:15:45;4.10;99.90
63771;DHT22;60282;43.862;18.430;2023-11-18T03:18:24;4.00;99.90
63771;DHT22;60282;43.862;18.430;2023-11-18T03:20:49;4.00;99.90
63771;DHT22;60282;43.862;18.430;2023-11-18T03:23:22;4.00;99.90
63771;DHT22;60282;43.862;18.430;2023-11-18T03:26:16;4.00;99.90
63771;DHT22;60282;43.862;18.430;2023-11-18T03:29:08;3.90;99.90
63771;DHT22;60282;43.862;18.430;2023-11-18T03:31:54;5.70;99.90
63771;DHT22;60282;43.862;18.430;2023-11-18T03:34:23;4.10;99.90
63771;DHT22;60282;43.862;18.430;2023-11-18T03:42:14;4.10;99.90
63771;DHT22;60282;43.862;18.430;2023-11-18T03:44:43;4.60;99.90
63771;DHT22;60282;43.862;18.430;2023-11-18T03:47:30;4.10;99.90
63771;DHT22;60282;43.862;18.430;2023-11-18T03:50:06;4.10;99.90
63771;DHT22;60282;43.862;18.430;2023-11-18T03:52:53;4.10;99.90
63771;DHT22;60282;43.862;18.430;2023-11-18T03:55:24;4.20;99.90
63771;DHT22;60282;43.862;18.430;2023-11-18T03:58:00;4.10;99.90
63771;DHT22;60282;43.862;18.430;2023-11-18T04:00:39;4.10;99.90
63771;DHT22;60282;43.862;18.430;2023-11-18T04:03:27;2.20;99.90
63771;DHT22;60282;43.862;18.430;2023-11-18T04:05:54;4.10;99.90
63771;DHT22;60282;43.862;18.430;2023-11-18T04:11:13;4.00;99.90
63771;DHT22;60282;43.862;18.430;2023-11-18T04:13:58;4.00;99.90
63771;DHT22;60282;43.862;18.430;2023-11-18T04:16:26;4.00;99.90
63771;DHT22;60282;43.862;18.430;2023-11-18T04:19:04;4.00;99.90
63771;DHT22;60282;43.862;18.430;2023-11-18T04:24:00;3.90;99.90
63771;DHT22;60282;43.862;18.430;2023-11-18T04:26:26;5.10;99.90
63771;DHT22;60282;43.862;18.430;2023-11-18T04:29:02;3.90;99.90
63771;DHT22;60282;43.862;18.430;2023-11-18T04:31:33;4.00;99.90
63771;DHT22;60282;43.862;18.430;2023-11-18T04:37:50;3.90;99.90
63771;DHT22;60282;43.862;18.430;2023-11-18T04:44:22;3.80;99.90
63771;DHT22;60282;43.862;18.430;2023-11-18T04:46:48;3.80;99.90
63771;DHT22;60282;43.862;18.430;2023-11-18T04:49:23;3.80;99.90
63771;DHT22;60282;43.862;18.430;2023-11-18T04:51:56;3.90;99.90
63771;DHT22;60282;43.862;18.430;2023-11-18T04:54:27;4.30;99.90
63771;DHT22;60282;43.862;18.430;2023-11-18T04:59:38;3.80;99.90
63771;DHT22;60282;43.862;18.430;2023-11-18T05:02:20;3.70;99.90
63771;DHT22;60282;43.862;18.430;2023-11-18T05:04:46;3.60;99.90
63771;DHT22;60282;43.862;18.430;2023-11-18T05:07:24;3.70;99.90
63771;DHT22;60282;43.862;18.430;2023-11-18T05:10:00;3.80;99.90
63771;DHT22;60282;43.862;18.430;2023-11-18T05:18:02;3.70;99.90
63771;DHT22;60282;43.862;18.430;2023-11-18T05:20:47;3.80;99.90
63771;DHT22;60282;43.862;18.430;2023-11-18T05:23:16;3.70;99.90
63771;DHT22;60282;43.862;18.430;2023-11-18T05:26:18;3.70;99.90
63771;DHT22;60282;43.862;18.430;2023-11-18T05:31:42;3.80;99.90
63771;DHT22;60282;43.862;18.430;2023-11-18T05:34:14;3.80;99.90
63771;DHT22;60282;43.862;18.430;2023-11-18T05:36:48;3.90;99.90
63771;DHT22;60282;43.862;18.430;2023-11-18T05:39:52;3.90;99.90
63771;DHT22;60282;43.862;18.430;2023-11-18T05:42:51;3.90;99.90
63771;DHT22;60282;43.862;18.430;2023-11-18T05:45:40;3.80;99.90
63771;DHT22;60282;43.862;18.430;2023-11-18T05:48:47;3.90;99.90
63771;DHT22;60282;43.862;18.430;2023-11-18T05:51:45;3.80;99.90
63771;DHT22;60282;43.862;18.430;2023-11-18T05:54:24;3.90;99.90
63771;DHT22;60282;43.862;18.430;2023-11-18T05:56:55;3.80;99.90
63771;DHT22;60282;43.862;18.430;2023-11-18T05:59:39;2.80;99.90
63771;DHT22;60282;43.862;18.430;2023-11-18T06:02:19;5.80;99.90
63771;DHT22;60282;43.862;18.430;2023-11-18T06:07:36;3.80;99.90
63771;DHT22;60282;43.862;18.430;2023-11-18T06:10:14;3.70;99.90
63771;DHT22;60282;43.862;18.430;2023-11-18T06:12:43;3.80;99.90
63771;DHT22;60282;43.862;18.430;2023-11-18T06:15:32;3.80;99.90
63771;DHT22;60282;43.862;18.430;2023-11-18T06:18:12;3.80;99.90
63771;DHT22;60282;43.862;18.430;2023-11-18T06:26:41;3.70;99.90
63771;DHT22;60282;43.862;18.430;2023-11-18T06:29:08;3.70;99.90
63771;DHT22;60282;43.862;18.430;2023-11-18T06:34:32;3.80;99.90
63771;DHT22;60282;43.862;18.430;2023-11-18T06:37:11;3.70;99.90
63771;DHT22;60282;43.862;18.430;2023-11-18T06:39:48;3.70;99.90
63771;DHT22;60282;43.862;18.430;2023-11-18T06:45:41;3.70;99.90
63771;DHT22;60282;43.862;18.430;2023-11-18T06:48:27;3.70;99.90
63771;DHT22;60282;43.862;18.430;2023-11-18T06:56:11;3.80;99.90
63771;DHT22;60282;43.862;18.430;2023-11-18T06:58:43;3.70;99.90
63771;DHT22;60282;43.862;18.430;2023-11-18T07:01:13;3.70;99.90
63771;DHT22;60282;43.862;18.430;2023-11-18T07:10:00;3.80;99.90
63771;DHT22;60282;43.862;18.430;2023-11-18T07:18:42;3.90;99.90
63771;DHT22;60282;43.862;18.430;2023-11-18T07:21:26;4.50;99.90
63771;DHT22;60282;43.862;18.430;2023-11-18T07:29:02;3.90;99.90
63771;DHT22;60282;43.862;18.430;2023-11-18T07:31:28;3.90;99.90
63771;DHT22;60282;43.862;18.430;2023-11-18T07:36:47;4.00;99.90
63771;DHT22;60282;43.862;18.430;2023-11-18T07:39:16;4.10;99.90
63771;DHT22;60282;43.862;18.430;2023-11-18T07:44:33;4.20;99.90
63771;DHT22;60282;43.862;18.430;2023-11-18T07:47:18;4.20;99.90
63771;DHT22;60282;43.862;18.430;2023-11-18T07:52:30;4.30;99.90
63771;DHT22;60282;43.862;18.430;2023-11-18T07:54:58;4.40;99.90
63771;DHT22;60282;43.862;18.430;2023-11-18T07:57:27;4.40;99.90
63771;DHT22;60282;43.862;18.430;2023-11-18T08:00:31;4.30;99.90
63771;DHT22;60282;43.862;18.430;2023-11-18T08:10:50;4.50;99.90
63771;DHT22;60282;43.862;18.430;2023-11-18T08:15:50;4.70;99.90
63771;DHT22;60282;43.862;18.430;2023-11-18T08:18:20;4.80;99.90
63771;DHT22;60282;43.862;18.430;2023-11-18T08:21:36;4.80;99.90
63771;DHT22;60282;43.862;18.430;2023-11-18T08:24:23;5.10;99.90
63771;DHT22;60282;43.862;18.430;2023-11-18T08:26:49;5.60;99.90
63771;DHT22;60282;43.862;18.430;2023-11-18T08:29:21;5.20;99.90
63771;DHT22;60282;43.862;18.430;2023-11-18T08:34:16;5.20;99.90
63771;DHT22;60282;43.862;18.430;2023-11-18T08:36:47;5.60;99.90
63771;DHT22;60282;43.862;18.430;2023-11-18T08:39:20;5.30;99.90
63771;DHT22;60282;43.862;18.430;2023-11-18T08:41:48;5.40;99.90
63771;DHT22;60282;43.862;18.430;2023-11-18T08:44:17;5.40;99.90
63771;DHT22;60282;43.862;18.430;2023-11-18T08:46:44;5.40;99.90
63771;DHT22;60282;43.862;18.430;2023-11-18T08:49:12;5.40;99.90
63771;DHT22;60282;43.862;18.430;2023-11-18T08:51:40;5.60;99.90
63771;DHT22;60282;43.862;18.430;2023-11-18T08:54:17;5.80;99.90
63771;DHT22;60282;43.862;18.430;2023-11-18T08:57:08;6.00;99.90
63771;DHT22;60282;43.862;18.430;2023-11-18T08:59:54;5.90;99.90
63771;DHT22;60282;43.862;18.430;2023-11-18T09:02:30;6.10;99.90
63771;DHT22;60282;43.862;18.430;2023-11-18T09:05:17;6.20;99.90
63771;DHT22;60282;43.862;18.430;2023-11-18T09:10:27;6.60;99.60
63771;DHT22;60282;43.862;18.430;2023-11-18T09:12:55;6.60;99.90
63771;DHT22;60282;43.862;18.430;2023-11-18T09:15:21;6.80;99.80
63771;DHT22;60282;43.862;18.430;2023-11-18T09:20:27;6.80;99.30
63771;DHT22;60282;43.862;18.430;2023-11-18T09:25:26;6.90;99.20
63771;DHT22;60282;43.862;18.430;2023-11-18T09:27:54;7.00;99.60
63771;DHT22;60282;43.862;18.430;2023-11-18T09:30:20;7.00;99.60
63771;DHT22;60282;43.862;18.430;2023-11-18T09:32:54;7.00;99.70
63771;DHT22;60282;43.862;18.430;2023-11-18T09:35:24;6.90;99.90
63771;DHT22;60282;43.862;18.430;2023-11-18T09:40:19;7.00;98.30
63771;DHT22;60282;43.862;18.430;2023-11-18T09:43:09;6.90;99.30
63771;DHT22;60282;43.862;18.430;2023-11-18T09:45:44;7.00;98.60
63771;DHT22;60282;43.862;18.430;2023-11-18T09:48:21;6.90;99.90
63771;DHT22;60282;43.862;18.430;2023-11-18T09:54:39;8.10;99.50
63771;DHT22;60282;43.862;18.430;2023-11-18T09:57:31;6.70;98.30
63771;DHT22;60282;43.862;18.430;2023-11-18T10:00:16;7.40;99.40
63771;DHT22;60282;43.862;18.430;2023-11-18T10:03:07;4.00;98.00
63771;DHT22;60282;43.862;18.430;2023-11-18T10:05:41;6.60;97.90
63771;DHT22;60282;43.862;18.430;2023-11-18T10:08:08;6.60;98.10
63771;DHT22;60282;43.862;18.430;2023-11-18T10:10:35;7.00;98.50
63771;DHT22;60282;43.862;18.430;2023-11-18T10:13:33;6.60;98.20
63771;DHT22;60282;43.862;18.430;2023-11-18T10:16:13;6.50;98.00
63771;DHT22;60282;43.862;18.430;2023-11-18T10:19:18;6.50;98.30
63771;DHT22;60282;43.862;18.430;2023-11-18T10:21:56;7.30;97.80
63771;DHT22;60282;43.862;18.430;2023-11-18T10:24:34;6.50;98.60
63771;DHT22;60282;43.862;18.430;2023-11-18T10:27:10;6.60;98.60
63771;DHT22;60282;43.862;18.430;2023-11-18T10:29:37;6.60;97.50
63771;DHT22;60282;43.862;18.430;2023-11-18T10:32:07;6.60;98.70
63771;DHT22;60282;43.862;18.430;2023-11-18T10:34:35;6.50;99.30
63771;DHT22;60282;43.862;18.430;2023-11-18T10:39:40;6.60;96.90
63771;DHT22;60282;43.862;18.430;2023-11-18T10:44:33;6.40;98.20
63771;DHT22;60282;43.862;18.430;2023-11-18T10:46:59;6.40;97.90
63771;DHT22;60282;43.862;18.430;2023-11-18T10:49:33;6.50;97.60
63771;DHT22;60282;43.862;18.430;2023-11-18T10:52:07;4.10;97.30
63771;DHT22;60282;43.862;18.430;2023-11-18T10:54:36;5.00;98.10
63771;DHT22;60282;43.862;18.430;2023-11-18T10:57:09;6.70;98.60
63771;DHT22;60282;43.862;18.430;2023-11-18T10:59:35;6.90;98.50
63771;DHT22;60282;43.862;18.430;2023-11-18T11:02:33;6.90;97.80
63771;DHT22;60282;43.862;18.430;2023-11-18T11:05:10;7.00;98.00
63771;DHT22;60282;43.862;18.430;2023-11-18T11:07:47;7.20;98.50
63771;DHT22;60282;43.862;18.430;2023-11-18T11:10:26;7.10;97.70
63771;DHT22;60282;43.862;18.430;2023-11-18T11:13:01;7.10;97.90
63771;DHT22;60282;43.862;18.430;2023-11-18T11:15:49;7.20;97.20
63771;DHT22;60282;43.862;18.430;2023-11-18T11:18:22;7.10;97.70
63771;DHT22;60282;43.862;18.430;2023-11-18T11:24:11;5.90;98.20
63771;DHT22;60282;43.862;18.430;2023-11-18T11:27:17;7.00;98.70
63771;DHT22;60282;43.862;18.430;2023-11-18T11:30:22;7.00;98.10
63771;DHT22;60282;43.862;18.430;2023-11-18T11:32:57;7.30;96.80
63771;DHT22;60282;43.862;18.430;2023-11-18T11:35:37;7.30;97.10
63771;DHT22;60282;43.862;18.430;2023-11-18T11:38:28;8.30;97.60
63771;DHT22;60282;43.862;18.430;2023-11-18T11:40:58;6.80;97.90
63771;DHT22;60282;43.862;18.430;2023-11-18T11:43:51;7.50;98.40
63771;DHT22;60282;43.862;18.430;2023-11-18T11:46:41;7.00;99.00
63771;DHT22;60282;43.862;18.430;2023-11-18T11:49:11;6.90;97.60
63771;DHT22;60282;43.862;18.430;2023-11-18T11:52:14;7.20;96.80
63771;DHT22;60282;43.862;18.430;2023-11-18T11:55:12;7.30;97.60
63771;DHT22;60282;43.862;18.430;2023-11-18T11:58:02;6.50;96.60
63771;DHT22;60282;43.862;18.430;2023-11-18T12:00:30;7.20;97.30
63771;DHT22;60282;43.862;18.430;2023-11-18T12:03:21;7.10;97.30
63771;DHT22;60282;43.862;18.430;2023-11-18T12:05:55;7.50;97.00
63771;DHT22;60282;43.862;18.430;2023-11-18T12:08:24;7.50;97.40
63771;DHT22;60282;43.862;18.430;2023-11-18T12:11:13;8.00;95.60
63771;DHT22;60282;43.862;18.430;2023-11-18T12:14:00;7.90;95.80
63771;DHT22;60282;43.862;18.430;2023-11-18T12:19:41;7.80;95.60
63771;DHT22;60282;43.862;18.430;2023-11-18T12:22:14;7.80;95.40
63771;DHT22;60282;43.862;18.430;2023-11-18T12:28:06;7.60;95.50
63771;DHT22;60282;43.862;18.430;2023-11-18T12:30:45;7.60;95.40
63771;DHT22;60282;43.862;18.430;2023-11-18T12:34:00;7.70;95.40
63771;DHT22;60282;43.862;18.430;2023-11-18T12:37:12;7.60;96.30
63771;DHT22;60282;43.862;18.430;2023-11-18T12:40:26;7.50;96.20
63771;DHT22;60282;43.862;18.430;2023-11-18T12:43:15;7.50;96.20
63771;DHT22;60282;43.862;18.430;2023-11-18T12:48:45;7.20;95.30
63771;DHT22;60282;43.862;18.430;2023-11-18T12:51:35;7.00;96.30
63771;DHT22;60282;43.862;18.430;2023-11-18T12:54:07;7.70;96.70
63771;DHT22;60282;43.862;18.430;2023-11-18T12:56:35;7.30;97.40
63771;DHT22;60282;43.862;18.430;2023-11-18T13:01:40;7.30;96.80
63771;DHT22;60282;43.862;18.430;2023-11-18T13:04:07;7.30;96.60
63771;DHT22;60282;43.862;18.430;2023-11-18T13:06:38;7.30;95.00
63771;DHT22;60282;43.862;18.430;2023-11-18T13:09:07;7.30;95.30
63771;DHT22;60282;43.862;18.430;2023-11-18T13:14:16;7.40;95.50
63771;DHT22;60282;43.862;18.430;2023-11-18T13:16:54;7.30;95.70
63771;DHT22;60282;43.862;18.430;2023-11-18T13:19:28;7.10;95.90
63771;DHT22;60282;43.862;18.430;2023-11-18T13:21:59;6.90;95.70
63771;DHT22;60282;43.862;18.430;2023-11-18T13:24:32;6.80;95.90
63771;DHT22;60282;43.862;18.430;2023-11-18T13:27:38;6.80;96.30
63771;DHT22;60282;43.862;18.430;2023-11-18T13:30:15;6.60;96.10
63771;DHT22;60282;43.862;18.430;2023-11-18T13:35:18;6.60;96.10
63771;DHT22;60282;43.862;18.430;2023-11-18T13:40:26;6.50;96.30
63771;DHT22;60282;43.862;18.430;2023-11-18T13:43:10;6.40;97.10
63771;DHT22;60282;43.862;18.430;2023-11-18T13:46:01;6.40;97.40
63771;DHT22;60282;43.862;18.430;2023-11-18T13:48:30;6.60;96.70
63771;DHT22;60282;43.862;18.430;2023-11-18T13:50:57;6.30;96.90
63771;DHT22;60282;43.862;18.430;2023-11-18T13:53:26;6.30;96.90
63771;DHT22;60282;43.862;18.430;2023-11-18T13:56:00;6.30;97.20
63771;DHT22;60282;43.862;18.430;2023-11-18T13:58:26;6.30;97.70
63771;DHT22;60282;43.862;18.430;2023-11-18T14:00:54;6.30;98.00
63771;DHT22;60282;43.862;18.430;2023-11-18T14:03:22;6.20;98.60
63771;DHT22;60282;43.862;18.430;2023-11-18T14:05:58;6.20;98.50
63771;DHT22;60282;43.862;18.430;2023-11-18T14:08:28;6.10;98.50
63771;DHT22;60282;43.862;18.430;2023-11-18T14:10:58;6.10;98.80
63771;DHT22;60282;43.862;18.430;2023-11-18T14:13:40;6.10;98.80
63771;DHT22;60282;43.862;18.430;2023-11-18T14:16:08;6.20;99.10
63771;DHT22;60282;43.862;18.430;2023-11-18T14:18:36;6.20;99.80
63771;DHT22;60282;43.862;18.430;2023-11-18T14:21:03;6.30;99.40
63771;DHT22;60282;43.862;18.430;2023-11-18T14:23:31;6.40;98.80
63771;DHT22;60282;43.862;18.430;2023-11-18T14:26:00;6.40;98.70
63771;DHT22;60282;43.862;18.430;2023-11-18T14:28:29;6.50;98.80
63771;DHT22;60282;43.862;18.430;2023-11-18T14:31:08;6.50;98.90
63771;DHT22;60282;43.862;18.430;2023-11-18T14:33:49;6.40;98.60
63771;DHT22;60282;43.862;18.430;2023-11-18T14:36:30;5.30;98.70
63771;DHT22;60282;43.862;18.430;2023-11-18T14:41:44;6.20;99.90
63771;DHT22;60282;43.862;18.430;2023-11-18T14:44:11;6.10;99.80
63771;DHT22;60282;43.862;18.430;2023-11-18T14:46:37;6.10;99.90
63771;DHT22;60282;43.862;18.430;2023-11-18T14:49:06;6.10;99.80
63771;DHT22;60282;43.862;18.430;2023-11-18T14:51:33;6.00;99.90
63771;DHT22;60282;43.862;18.430;2023-11-18T14:56:31;5.80;99.90
63771;DHT22;60282;43.862;18.430;2023-11-18T14:58:56;5.80;99.90
63771;DHT22;60282;43.862;18.430;2023-11-18T15:01:23;6.30;99.90
63771;DHT22;60282;43.862;18.430;2023-11-18T15:03:52;5.80;99.90
63771;DHT22;60282;43.862;18.430;2023-11-18T15:06:30;5.80;99.90
63771;DHT22;60282;43.862;18.430;2023-11-18T15:09:01;5.70;99.90
63771;DHT22;60282;43.862;18.430;2023-11-18T15:13:57;5.60;99.90
63771;DHT22;60282;43.862;18.430;2023-11-18T15:16:26;5.70;99.90
63771;DHT22;60282;43.862;18.430;2023-11-18T15:18:58;5.60;99.90
63771;DHT22;60282;43.862;18.430;2023-11-18T15:21:38;5.60;99.90
63771;DHT22;60282;43.862;18.430;2023-11-18T15:24:09;5.60;99.90
63771;DHT22;60282;43.862;18.430;2023-11-18T15:26:54;5.70;99.90
63771;DHT22;60282;43.862;18.430;2023-11-18T15:29:22;5.60;99.90
63771;DHT22;60282;43.862;18.430;2023-11-18T15:34:27;5.60;99.90
63771;DHT22;60282;43.862;18.430;2023-11-18T15:36:52;5.50;99.90
63771;DHT22;60282;43.862;18.430;2023-11-18T15:39:28;5.60;99.90
63771;DHT22;60282;43.862;18.430;2023-11-18T15:42:10;5.50;99.90
63771;DHT22;60282;43.862;18.430;2023-11-18T15:44:44;5.50;99.90
63771;DHT22;60282;43.862;18.430;2023-11-18T15:50:32;5.40;99.90
63771;DHT22;60282;43.862;18.430;2023-11-18T15:53:08;5.70;99.90
63771;DHT22;60282;43.862;18.430;2023-11-18T15:55:56;5.30;99.90
63771;DHT22;60282;43.862;18.430;2023-11-18T15:58:25;5.40;99.90
63771;DHT22;60282;43.862;18.430;2023-11-18T16:00:59;5.40;99.90
63771;DHT22;60282;43.862;18.430;2023-11-18T16:03:30;5.40;99.90
63771;DHT22;60282;43.862;18.430;2023-11-18T16:09:22;5.30;99.90
63771;DHT22;60282;43.862;18.430;2023-11-18T16:12:06;5.30;99.90
63771;DHT22;60282;43.862;18.430;2023-11-18T16:14:38;4.70;99.90
63771;DHT22;60282;43.862;18.430;2023-11-18T16:17:13;5.40;99.90
63771;DHT22;60282;43.862;18.430;2023-11-18T16:19:49;5.40;99.90
63771;DHT22;60282;43.862;18.430;2023-11-18T16:22:55;5.40;99.90
63771;DHT22;60282;43.862;18.430;2023-11-18T16:28:22;5.50;99.90
63771;DHT22;60282;43.862;18.430;2023-11-18T16:30:49;5.50;99.90
63771;DHT22;60282;43.862;18.430;2023-11-18T16:33:19;5.50;99.90
63771;DHT22;60282;43.862;18.430;2023-11-18T16:35:55;5.50;99.90
63771;DHT22;60282;43.862;18.430;2023-11-18T16:38:35;5.50;99.90
63771;DHT22;60282;43.862;18.430;2023-11-18T16:41:05;5.90;99.90
63771;DHT22;60282;43.862;18.430;2023-11-18T16:43:59;5.50;99.90
63771;DHT22;60282;43.862;18.430;2023-11-18T16:47:08;6.20;99.90
63771;DHT22;60282;43.862;18.430;2023-11-18T16:50:06;5.60;99.90
63771;DHT22;60282;43.862;18.430;2023-11-18T16:52:34;5.60;99.90
63771;DHT22;60282;43.862;18.430;2023-11-18T16:55:10;4.90;99.90
63771;DHT22;60282;43.862;18.430;2023-11-18T16:57:59;5.60;99.90
63771;DHT22;60282;43.862;18.430;2023-11-18T17:00:28;5.70;99.90
63771;DHT22;60282;43.862;18.430;2023-11-18T17:05:26;5.60;99.90
63771;DHT22;60282;43.862;18.430;2023-11-18T17:08:05;5.60;99.90
63771;DHT22;60282;43.862;18.430;2023-11-18T17:13:24;5.60;99.90
63771;DHT22;60282;43.862;18.430;2023-11-18T17:15:54;5.50;99.90
63771;DHT22;60282;43.862;18.430;2023-11-18T17:21:22;5.50;99.90
63771;DHT22;60282;43.862;18.430;2023-11-18T17:23:52;6.30;99.90
63771;DHT22;60282;43.862;18.430;2023-11-18T17:26:18;5.50;99.90
63771;DHT22;60282;43.862;18.430;2023-11-18T17:28:45;5.50;99.90
63771;DHT22;60282;43.862;18.430;2023-11-18T17:31:16;5.50;99.90
63771;DHT22;60282;43.862;18.430;2023-11-18T17:34:03;5.50;99.90
63771;DHT22;60282;43.862;18.430;2023-11-18T17:36:34;6.20;99.90
63771;DHT22;60282;43.862;18.430;2023-11-18T17:41:34;5.50;99.90
63771;DHT22;60282;43.862;18.430;2023-11-18T17:44:20;5.50;99.90
63771;DHT22;60282;43.862;18.430;2023-11-18T17:46:46;5.50;99.90
63771;DHT22;60282;43.862;18.430;2023-11-18T17:51:53;4.80;99.90
63771;DHT22;60282;43.862;18.430;2023-11-18T17:54:32;5.60;99.90
63771;DHT22;60282;43.862;18.430;2023-11-18T17:56:58;5.40;99.90
63771;DHT22;60282;43.862;18.430;2023-11-18T17:59:52;5.30;99.90
63771;DHT22;60282;43.862;18.430;2023-11-18T18:04:51;5.20;99.90
63771;DHT22;60282;43.862;18.430;2023-11-18T18:07:21;5.30;99.90
63771;DHT22;60282;43.862;18.430;2023-11-18T18:09:47;5.30;99.90
63771;DHT22;60282;43.862;18.430;2023-11-18T18:12:14;5.20;99.90
63771;DHT22;60282;43.862;18.430;2023-11-18T18:17:11;5.20;99.90
63771;DHT22;60282;43.862;18.430;2023-11-18T18:19:39;5.20;99.90
63771;DHT22;60282;43.862;18.430;2023-11-18T18:22:08;5.10;99.90
63771;DHT22;60282;43.862;18.430;2023-11-18T18:24:44;5.20;99.90
63771;DHT22;60282;43.862;18.430;2023-11-18T18:27:11;5.20;99.90
63771;DHT22;60282;43.862;18.430;2023-11-18T18:32:04;5.10;99.90
63771;DHT22;60282;43.862;18.430;2023-11-18T18:34:30;5.10;99.90
63771;DHT22;60282;43.862;18.430;2023-11-18T18:36:56;5.10;99.90
63771;DHT22;60282;43.862;18.430;2023-11-18T18:39:22;5.20;99.90
63771;DHT22;60282;43.862;18.430;2023-11-18T18:41:48;5.10;99.90
63771;DHT22;60282;43.862;18.430;2023-11-18T18:44:13;4.50;99.90
63771;DHT22;60282;43.862;18.430;2023-11-18T18:46:40;5.10;99.90
63771;DHT22;60282;43.862;18.430;2023-11-18T18:49:07;5.20;99.90
63771;DHT22;60282;43.862;18.430;2023-11-18T18:51:41;5.10;99.90
63771;DHT22;60282;43.862;18.430;2023-11-18T18:54:07;5.00;99.90
63771;DHT22;60282;43.862;18.430;2023-11-18T18:59:09;5.90;99.90
63771;DHT22;60282;43.862;18.430;2023-11-18T19:01:38;5.00;99.90
63771;DHT22;60282;43.862;18.430;2023-11-18T19:04:07;4.90;99.90
63771;DHT22;60282;43.862;18.430;2023-11-18T19:06:33;4.90;99.90
63771;DHT22;60282;43.862;18.430;2023-11-18T19:08:59;4.90;99.90
63771;DHT22;60282;43.862;18.430;2023-11-18T19:11:25;4.90;99.90
63771;DHT22;60282;43.862;18.430;2023-11-18T19:13:52;4.90;99.90
63771;DHT22;60282;43.862;18.430;2023-11-18T19:16:21;4.90;99.90
63771;DHT22;60282;43.862;18.430;2023-11-18T19:18:57;5.00;99.90
63771;DHT22;60282;43.862;18.430;2023-11-18T19:21:30;4.90;99.90
63771;DHT22;60282;43.862;18.430;2023-11-18T19:24:07;4.90;99.90
63771;DHT22;60282;43.862;18.430;2023-11-18T19:26:40;4.80;99.90
63771;DHT22;60282;43.862;18.430;2023-11-18T19:29:13;4.80;99.90
63771;DHT22;60282;43.862;18.430;2023-11-18T19:31:55;4.80;99.90
63771;DHT22;60282;43.862;18.430;2023-11-18T19:34:49;4.80;99.90
63771;DHT22;60282;43.862;18.430;2023-11-18T19:37:19;4.80;99.90
63771;DHT22;60282;43.862;18.430;2023-11-18T19:39:50;4.70;99.90
63771;DHT22;60282;43.862;18.430;2023-11-18T19:42:19;5.10;99.90
63771;DHT22;60282;43.862;18.430;2023-11-18T19:44:48;4.70;99.90